Time;durP1;ratioP1;P1;durP2;ratioP2;P2;SDS_P1;SDS_P2;PMS_P1;PMS_P2;Temp;Humidity;BMP_temperature;BMP_pressure;BME280_temperature;BME280_humidity;BME280_pressure;Samples;Min_cycle;Max_cycle;Signal;HPM_P1;HPM_P2
2023/02/10 00:01:01;;;;;;;49.55;23.62;;;;;;;-3.91;56.33;102169.03;1648969;87;21786;-83
2023/02/10 00:04:07;;;;;;;47.48;22.58;;;;;;;-4.15;56.82;102165.17;1649286;87;21229;-83
2023/02/10 00:07:14;;;;;;;58.02;24.70;;;;;;;-3.95;56.48;102163.33;1648763;87;21292;-81
2023/02/10 00:10:20;;;;;;;50.95;23.87;;;;;;;-4.16;56.53;102165.63;1650140;87;21785;-83
2023/02/10 00:13:27;;;;;;;54.08;25.68;;;;;;;-4.39;57.28;102165.30;1648297;87;21233;-82
2023/02/10 00:16:33;;;;;;;67.15;29.42;;;;;;;-4.03;56.88;102158.66;1649153;87;21173;-83
2023/02/10 00:19:39;;;;;;;78.25;33.63;;;;;;;-4.03;56.68;102152.86;1647952;87;21269;-83
2023/02/10 00:22:45;;;;;;;75.10;33.10;;;;;;;-4.19;57.02;102151.03;1648228;87;21257;-81
2023/02/10 00:25:51;;;;;;;79.67;34.67;;;;;;;-4.15;57.28;102153.14;1649251;87;21771;-82
2023/02/10 00:28:57;;;;;;;75.03;33.98;;;;;;;-4.15;57.08;102147.34;1649284;87;21762;-82
2023/02/10 00:32:03;;;;;;;66.77;30.00;;;;;;;-4.20;57.68;102151.05;1648568;87;21212;-82
2023/02/10 00:35:10;;;;;;;60.98;27.90;;;;;;;-4.03;57.77;102148.84;1649439;87;21815;-82
2023/02/10 00:38:15;;;;;;;50.45;21.57;;;;;;;-3.97;57.68;102143.33;1648020;87;21272;-82
2023/02/10 00:41:23;;;;;;;49.65;23.15;;;;;;;-3.91;58.18;102145.84;1647983;87;21272;-83
2023/02/10 00:44:28;;;;;;;58.35;26.73;;;;;;;-3.90;58.74;102138.73;1649143;87;21225;-82
2023/02/10 00:47:34;;;;;;;59.98;26.93;;;;;;;-3.97;59.10;102142.45;1648688;87;21236;-82
2023/02/10 00:50:40;;;;;;;57.50;27.52;;;;;;;-4.08;58.48;102136.52;1641935;87;21235;-82
2023/02/10 00:53:50;;;;;;;60.90;27.82;;;;;;;-3.99;58.29;102147.86;1654289;86;21786;-82
2023/02/10 00:56:56;;;;;;;71.80;32.55;;;;;;;-4.22;58.17;102143.54;1659140;84;21183;-82
2023/02/10 01:00:02;;;;;;;78.00;34.08;;;;;;;-4.34;58.37;102139.35;1695070;84;21241;-81
2023/02/10 01:03:10;;;;;;;68.05;32.55;;;;;;;-4.31;58.00;102141.09;1733893;82;21784;-82
2023/02/10 01:06:18;;;;;;;70.67;33.65;;;;;;;-4.36;57.68;102145.20;1725140;83;21201;-83
2023/02/10 01:09:23;;;;;;;48.48;25.48;;;;;;;-4.48;58.41;102146.36;1742955;82;21228;-83
2023/02/10 01:12:30;;;;;;;63.95;27.58;;;;;;;-4.25;58.13;102138.26;1738748;82;21185;-81
2023/02/10 01:15:36;;;;;;;67.67;30.32;;;;;;;-3.98;58.05;102140.25;1739359;82;21145;-81
2023/02/10 01:18:41;;;;;;;65.62;29.95;;;;;;;-4.25;58.13;102147.61;1738005;82;21236;-82
2023/02/10 01:21:47;;;;;;;48.58;24.35;;;;;;;-4.36;58.39;102145.20;1738668;82;21177;-83
2023/02/10 01:24:54;;;;;;;57.27;27.15;;;;;;;-4.14;58.63;102142.44;1726714;82;21212;-81
2023/02/10 01:27:59;;;;;;;58.38;28.42;;;;;;;-4.04;58.81;102144.42;1738453;82;21843;-81
2023/02/10 01:31:06;;;;;;;44.05;22.93;;;;;;;-4.10;58.80;102140.55;1723869;82;21224;-82
2023/02/10 01:34:12;;;;;;;57.30;26.85;;;;;;;-4.19;59.16;102139.44;1745225;82;21754;-83
2023/02/10 01:37:18;;;;;;;57.98;27.32;;;;;;;-4.07;59.17;102136.47;1720767;82;21725;-84
2023/02/10 01:40:25;;;;;;;54.40;26.95;;;;;;;-4.01;59.17;102139.44;1718899;83;21189;-82
2023/02/10 01:43:30;;;;;;;53.58;27.27;;;;;;;-3.94;58.18;102139.72;1728549;83;21315;-82
2023/02/10 01:46:39;;;;;;;57.95;28.23;;;;;;;-4.03;58.41;102135.48;1736607;82;21236;-82
2023/02/10 01:49:52;;;;;;;46.05;22.82;;;;;;;-4.13;58.24;102130.83;1739660;82;21719;-83
2023/02/10 01:52:59;;;;;;;55.83;25.85;;;;;;;-4.26;58.46;102136.51;1739028;82;21232;-83
2023/02/10 01:56:05;;;;;;;62.67;29.10;;;;;;;-4.13;58.11;102129.95;1725324;82;21241;-83
2023/02/10 01:59:11;;;;;;;57.62;27.82;;;;;;;-4.04;58.35;102124.84;1737395;82;21212;-82
2023/02/10 02:02:17;;;;;;;51.33;26.87;;;;;;;-4.07;58.44;102130.25;1738621;82;21236;-81
2023/02/10 02:05:38;;;;;;;57.25;27.32;;;;;;;-4.00;58.40;102130.06;1739078;82;21173;-82
2023/02/10 02:08:45;;;;;;;52.55;26.35;;;;;;;-3.75;57.70;102131.63;1723960;82;21169;-82
2023/02/10 02:12:17;;;;;;;48.08;24.57;;;;;;;-3.98;57.94;102127.34;1723888;82;21180;-83
2023/02/10 02:15:38;;;;;;;48.58;24.70;;;;;;;-4.16;57.76;102125.55;1739155;82;21180;-82
2023/02/10 02:18:55;;;;;;;49.70;25.15;;;;;;;-4.16;57.39;102129.55;1739117;82;21726;-82
2023/02/10 02:22:34;;;;;;;57.78;25.20;;;;;;;-4.30;57.75;102134.36;1726225;82;21174;-83
2023/02/10 02:26:14;;;;;;;53.33;26.17;;;;;;;-4.39;57.88;102126.11;1738618;82;21229;-81
2023/02/10 02:29:55;;;;;;;54.27;26.07;;;;;;;-4.25;57.45;102123.56;1735219;82;21180;-82
2023/02/10 02:33:08;;;;;;;58.17;26.52;;;;;;;-4.30;57.88;102122.80;1738623;82;21232;-81
2023/02/10 02:36:24;;;;;;;51.15;25.08;;;;;;;-4.48;57.87;102124.11;1739477;82;21236;-84
2023/02/10 02:39:29;;;;;;;59.53;28.98;;;;;;;-4.62;58.46;102112.41;1739772;82;21610;-84
2023/02/10 02:46:41;;;;;;;54.75;27.45;;;;;;;-4.79;59.20;102115.95;1742475;82;21202;-84
2023/02/10 02:50:07;;;;;;;51.20;27.67;;;;;;;-4.35;58.46;102121.58;1689310;82;21250;-85
2023/02/10 02:53:38;;;;;;;56.28;27.85;;;;;;;-4.48;58.26;102120.98;1742452;82;21272;-84
2023/02/10 02:57:18;;;;;;;56.15;27.45;;;;;;;-4.50;59.37;102112.60;1742996;82;21578;-83
2023/02/10 03:00:16;;;;;;;57.25;27.62;;;;;;;-4.45;59.02;102114.70;1691723;84;21274;-84
2023/02/10 03:03:22;;;;;;;47.10;24.95;;;;;;;-4.37;58.87;102117.61;1692863;84;21195;-84
2023/02/10 03:06:30;;;;;;;55.67;25.97;;;;;;;-4.20;58.53;102114.97;1693110;84;21246;-84
2023/02/10 03:09:35;;;;;;;52.23;25.25;;;;;;;-4.25;58.06;102113.75;1693070;84;21195;-83
2023/02/10 03:12:42;;;;;;;55.35;26.82;;;;;;;-4.31;57.91;102113.91;1692873;84;21762;-83
2023/02/10 03:15:48;;;;;;;58.40;27.82;;;;;;;-4.33;58.18;102110.84;1692975;84;21227;-83
2023/02/10 03:18:56;;;;;;;66.53;30.37;;;;;;;-4.18;58.18;102095.33;1691744;84;21219;-83
2023/02/10 03:22:01;;;;;;;52.15;24.23;;;;;;;-4.25;58.22;102088.36;1692908;84;21202;-83
2023/02/10 03:25:07;;;;;;;55.33;28.95;;;;;;;-4.31;58.08;102089.86;1691997;84;21206;-83
2023/02/10 03:28:14;;;;;;;59.60;29.65;;;;;;;-4.39;58.44;102090.50;1693128;84;21825;-81
2023/02/10 03:31:20;;;;;;;55.48;25.27;;;;;;;-4.37;59.00;102090.02;1693361;84;21211;-83
2023/02/10 03:34:26;;;;;;;63.83;29.65;;;;;;;-4.38;59.39;102081.10;1693330;84;21222;-82
2023/02/10 03:37:32;;;;;;;60.00;27.87;;;;;;;-4.51;59.84;102093.49;1693900;84;21207;-82
2023/02/10 03:40:38;;;;;;;66.20;29.75;;;;;;;-4.50;60.39;102097.91;1692818;84;21872;-83
2023/02/10 03:43:44;;;;;;;87.57;35.00;;;;;;;-4.49;60.56;102098.33;1692538;84;21211;-84
2023/02/10 03:46:51;;;;;;;68.47;32.42;;;;;;;-4.53;60.93;102109.53;1692958;83;21238;-83
2023/02/10 03:49:57;;;;;;;61.77;28.90;;;;;;;-4.49;60.92;102106.34;1694053;84;21191;-83
2023/02/10 03:53:03;;;;;;;72.17;31.48;;;;;;;-4.30;60.39;102096.08;1689164;85;22448;-83
2023/02/10 03:56:10;;;;;;;64.72;31.17;;;;;;;-4.30;59.87;102100.96;1689022;85;21203;-83
2023/02/10 03:59:17;;;;;;;62.88;30.57;;;;;;;-4.42;59.93;102099.48;1688929;85;21207;-82
2023/02/10 04:02:23;;;;;;;72.53;32.13;;;;;;;-4.26;59.87;102093.76;1689023;85;21251;-84
2023/02/10 04:05:30;;;;;;;63.98;29.57;;;;;;;-4.30;60.13;102101.42;1688060;85;21191;-83
2023/02/10 04:08:35;;;;;;;65.65;31.42;;;;;;;-4.30;60.07;102100.96;1678563;85;21247;-83
2023/02/10 04:11:42;;;;;;;66.28;30.05;;;;;;;-4.32;59.97;102097.92;1689475;85;21202;-82
2023/02/10 04:14:48;;;;;;;63.63;31.20;;;;;;;-4.24;60.07;102108.81;1691225;85;21236;-83
2023/02/10 04:17:56;;;;;;;72.15;32.48;;;;;;;-4.23;60.49;102105.72;1687553;85;21195;-83
2023/02/10 04:21:02;;;;;;;59.30;28.57;;;;;;;-4.09;60.40;102108.91;1693451;84;22472;-83
2023/02/10 04:24:08;;;;;;;61.13;30.37;;;;;;;-4.03;60.16;102111.88;1691698;85;21801;-83
2023/02/10 04:27:14;;;;;;;61.95;28.57;;;;;;;-4.12;60.11;102112.99;1691729;85;21604;-83
2023/02/10 04:30:20;;;;;;;68.25;32.45;;;;;;;-4.39;61.04;102116.75;1691376;85;21789;-83
2023/02/10 04:33:27;;;;;;;64.72;33.58;;;;;;;-4.33;61.55;102112.17;1691739;85;21206;-82
2023/02/10 04:36:33;;;;;;;71.42;31.93;;;;;;;-4.49;61.99;102116.56;1689822;85;21203;-83
2023/02/10 04:39:39;;;;;;;82.75;35.23;;;;;;;-4.40;62.17;102115.47;1690610;85;21203;-83
2023/02/10 04:42:44;;;;;;;65.85;30.65;;;;;;;-4.25;62.58;102116.88;1691779;85;21191;-84
2023/02/10 04:45:52;;;;;;;70.03;32.38;;;;;;;-3.95;62.05;102117.45;1690903;85;21804;-83
2023/02/10 04:48:58;;;;;;;66.85;33.18;;;;;;;-4.12;62.70;102116.54;1690471;85;21349;-82
2023/02/10 04:52:04;;;;;;;71.33;31.57;;;;;;;-4.13;63.32;102117.46;1691706;85;21754;-83
2023/02/10 04:55:10;;;;;;;59.45;27.87;;;;;;;-4.06;63.81;102118.17;1691410;85;21219;-83
2023/02/10 04:58:16;;;;;;;61.88;31.50;;;;;;;-3.86;63.74;102119.89;1691721;85;21247;-85
2023/02/10 05:01:22;;;;;;;67.95;31.57;;;;;;;-3.82;63.97;102115.78;1690983;85;21231;-84
2023/02/10 05:04:28;;;;;;;100.05;42.93;;;;;;;-3.70;64.11;102114.13;1691712;85;21246;-84
2023/02/10 05:07:26;;;;;;;101.70;46.02;;;;;;;-3.55;64.21;102116.38;1690256;85;21790;-83
2023/02/10 05:10:19;;;;;;;85.65;40.30;;;;;;;-3.58;64.96;102118.25;1691631;85;21282;-83
2023/02/10 05:13:05;;;;;;;72.92;28.95;;;;;;;-3.14;63.77;102119.69;1691643;85;21147;-83
2023/02/10 05:15:57;;;;;;;62.17;30.95;;;;;;;-3.09;63.38;102121.77;1690922;85;21807;-84
2023/02/10 05:19:04;;;;;;;74.77;33.55;;;;;;;-3.21;63.38;102131.48;1691669;85;21809;-83
2023/02/10 05:22:10;;;;;;;71.47;30.92;;;;;;;-3.32;64.48;102128.24;1689918;85;21933;-82
2023/02/10 05:25:16;;;;;;;62.83;29.02;;;;;;;-3.02;64.32;102128.67;1690356;85;21215;-83
2023/02/10 05:28:18;;;;;;;58.95;29.60;;;;;;;-2.81;64.09;102124.96;1701284;83;21581;-83
2023/02/10 05:31:24;;;;;;;65.78;34.05;;;;;;;-2.83;64.06;102133.89;1719667;83;21544;-84
2023/02/10 05:34:30;;;;;;;71.07;33.20;;;;;;;-2.91;64.61;102141.30;1721574;81;21215;-83
2023/02/10 05:37:35;;;;;;;66.02;30.60;;;;;;;-2.77;65.03;102133.32;1695969;83;22540;-83
2023/02/10 05:40:40;;;;;;;65.97;32.25;;;;;;;-2.49;64.66;102131.54;1661093;85;21798;-84
2023/02/10 05:43:47;;;;;;;61.90;30.95;;;;;;;-2.53;64.92;102133.89;1692612;84;21182;-84
2023/02/10 05:46:54;;;;;;;142.65;63.00;;;;;;;-2.24;64.45;102133.42;1691801;84;21274;-81
2023/02/10 05:50:00;;;;;;;116.73;54.95;;;;;;;-2.33;64.92;102130.11;1692427;84;21192;-83
2023/02/10 05:53:07;;;;;;;90.55;44.00;;;;;;;-2.13;64.65;102142.85;1685011;84;21784;-83
2023/02/10 05:56:15;;;;;;;84.32;40.90;;;;;;;-2.12;64.27;102137.02;1698346;82;21288;-83
2023/02/10 05:59:14;;;;;;;57.98;25.20;;;;;;;-2.06;64.11;102135.50;1653931;85;21282;-83
2023/02/10 06:02:20;;;;;;;65.12;30.52;;;;;;;-2.24;64.93;102137.45;1687931;84;21215;-82
2023/02/10 06:05:26;;;;;;;59.18;30.27;;;;;;;-2.09;64.75;102137.80;1670398;85;21201;-82
2023/02/10 06:08:25;;;;;;;63.45;28.38;;;;;;;-1.97;64.53;102131.64;1695099;84;21222;-83
2023/02/10 06:11:18;;;;;;;72.42;34.25;;;;;;;-1.96;64.59;102138.75;1697606;82;21203;-83
2023/02/10 06:14:24;;;;;;;70.32;33.50;;;;;;;-1.73;64.14;102136.62;1706742;83;21802;-83
2023/02/10 06:17:31;;;;;;;62.75;30.50;;;;;;;-1.60;63.92;102135.24;1676849;85;21228;-84
2023/02/10 06:20:37;;;;;;;55.48;29.02;;;;;;;-1.96;64.70;102134.26;1682921;85;21291;-82
2023/02/10 06:23:43;;;;;;;56.63;28.60;;;;;;;-1.85;64.54;102136.56;1685634;82;21186;-83
2023/02/10 06:26:48;;;;;;;59.15;27.73;;;;;;;-1.72;64.20;102132.54;1695078;83;21211;-83
2023/02/10 06:29:55;;;;;;;61.10;28.87;;;;;;;-1.61;63.88;102133.50;1692812;82;21847;-82
2023/02/10 06:33:02;;;;;;;57.03;29.50;;;;;;;-1.51;64.07;102128.67;1691138;82;21233;-83
2023/02/10 06:36:11;;;;;;;59.35;28.65;;;;;;;-1.27;63.53;102129.59;1661978;84;22203;-82
2023/02/10 06:39:10;;;;;;;61.58;31.52;;;;;;;-1.11;63.38;102130.33;1661014;84;21232;-80
2023/02/10 06:42:03;;;;;;;61.42;30.23;;;;;;;-0.99;63.24;102130.31;1659562;84;21221;-83
2023/02/10 06:45:09;;;;;;;53.10;27.10;;;;;;;-0.83;62.96;102134.19;1653180;85;21847;-80
2023/02/10 06:48:15;;;;;;;62.50;30.20;;;;;;;-1.15;63.95;102130.50;1637398;86;22552;-82
2023/02/10 06:51:20;;;;;;;61.92;31.75;;;;;;;-0.99;63.89;102128.10;1676311;84;21512;-82
2023/02/10 06:54:26;;;;;;;60.08;30.15;;;;;;;-0.70;63.35;102121.63;1654966;86;21417;-85
2023/02/10 06:57:35;;;;;;;52.78;28.75;;;;;;;-0.54;63.35;102126.80;1675079;84;21750;-82
2023/02/10 07:00:40;;;;;;;52.95;29.30;;;;;;;-0.40;63.25;102125.77;1686136;85;21236;-85
2023/02/10 07:03:46;;;;;;;51.30;27.10;;;;;;;-0.30;63.59;102117.73;1698268;84;21185;-85
2023/02/10 07:06:53;;;;;;;49.70;26.45;;;;;;;0.01;63.64;102120.52;1678063;84;21831;-84
2023/02/10 07:09:59;;;;;;;43.78;23.18;;;;;;;0.17;63.08;102120.25;1684980;84;22296;-84
2023/02/10 07:13:04;;;;;;;47.35;23.47;;;;;;;0.31;63.01;102116.97;1685365;84;21835;-85
2023/02/10 07:16:14;;;;;;;52.08;24.35;;;;;;;0.34;63.06;102110.59;1680571;83;21224;-84
2023/02/10 07:19:17;;;;;;;51.58;24.50;;;;;;;0.51;62.92;102113.40;1736352;81;21197;-82
2023/02/10 07:22:23;;;;;;;71.47;31.57;;;;;;;0.70;62.40;102108.94;1732905;81;21228;-85
2023/02/10 07:25:21;;;;;;;51.02;26.50;;;;;;;0.95;61.60;102112.75;1733116;82;21190;-85
2023/02/10 07:28:26;;;;;;;41.63;24.60;;;;;;;1.08;61.44;102110.34;1731637;82;21165;-85
2023/02/10 07:31:35;;;;;;;46.77;26.05;;;;;;;1.34;60.97;102103.73;1735687;82;21168;-85
2023/02/10 07:34:40;;;;;;;44.88;25.92;;;;;;;1.31;60.72;102103.87;1734592;82;21628;-84
2023/02/10 07:37:46;;;;;;;44.45;25.52;;;;;;;1.56;59.96;102096.84;1730697;82;21237;-82
2023/02/10 07:40:51;;;;;;;49.95;26.33;;;;;;;1.51;59.81;102098.89;1738623;82;21177;-81
2023/02/10 07:43:58;;;;;;;46.70;24.27;;;;;;;1.60;60.14;102097.54;1737237;82;21375;-85
2023/02/10 07:47:04;;;;;;;43.28;24.45;;;;;;;1.49;60.71;102096.72;1734397;81;21160;-85
2023/02/10 07:50:03;;;;;;;43.58;23.70;;;;;;;1.83;59.90;102099.10;1741570;80;21300;-85
2023/02/10 07:53:09;;;;;;;39.73;22.55;;;;;;;1.64;60.07;102093.27;1736993;82;21192;-86
2023/02/10 07:56:09;;;;;;;37.90;22.22;;;;;;;1.75;60.58;102101.72;1741314;81;21178;-85
2023/02/10 07:59:15;;;;;;;30.25;18.80;;;;;;;1.74;60.82;102096.38;1695250;82;21209;-84
2023/02/10 08:02:20;;;;;;;42.23;23.57;;;;;;;1.79;60.64;102105.16;1697958;82;21217;-86
2023/02/10 08:05:28;;;;;;;37.98;21.65;;;;;;;2.10;60.16;102098.19;1686099;84;21230;-84
2023/02/10 08:08:33;;;;;;;35.85;20.97;;;;;;;1.97;60.56;102101.98;1676606;84;22007;-85
2023/02/10 08:11:38;;;;;;;41.98;20.45;;;;;;;2.25;60.05;102098.75;1681645;85;21723;-85
2023/02/10 08:14:45;;;;;;;37.70;20.25;;;;;;;2.62;59.02;102084.66;1705791;83;21225;-86
2023/02/10 08:17:52;;;;;;;38.20;21.27;;;;;;;2.73;58.37;102085.85;1719017;81;22411;-85
2023/02/10 08:20:58;;;;;;;36.88;22.17;;;;;;;2.81;57.94;102078.18;1696066;84;21173;-85
2023/02/10 08:24:04;;;;;;;38.80;21.97;;;;;;;3.07;57.32;102088.06;1706154;83;21194;-83
2023/02/10 08:27:12;;;;;;;41.35;23.50;;;;;;;2.97;57.45;102093.11;1686368;83;21216;-82
2023/02/10 08:30:18;;;;;;;39.20;22.00;;;;;;;3.03;57.22;102083.30;1697411;84;21214;-82
2023/02/10 08:33:23;;;;;;;38.02;21.80;;;;;;;3.03;57.50;102083.77;1688992;83;21204;-83
2023/02/10 08:36:30;;;;;;;36.58;21.75;;;;;;;3.11;57.13;102084.23;1686607;83;21522;-82
2023/02/10 08:42:11;;;;;;;38.95;22.55;;;;;;;3.56;56.59;102083.94;1847117;76;28101;-83
2023/02/10 08:45:18;;;;;;;37.03;22.67;;;;;;;3.38;56.92;102089.03;1795958;79;21270;-82
2023/02/10 08:48:23;;;;;;;38.65;24.02;;;;;;;3.53;56.42;102090.41;1788081;79;21799;-83
2023/02/10 08:51:32;;;;;;;37.13;21.33;;;;;;;3.73;56.25;102079.78;1785774;79;21161;-82
2023/02/10 08:54:38;;;;;;;19.87;12.50;;;;;;;3.76;55.67;102076.88;1782156;79;21195;-83
2023/02/10 08:57:44;;;;;;;12.85;8.63;;;;;;;3.73;55.04;102076.20;1782795;79;21207;-83
2023/02/10 09:00:50;;;;;;;12.43;8.23;;;;;;;3.84;53.69;102078.66;1783701;80;21522;-83
2023/02/10 09:03:57;;;;;;;13.78;8.70;;;;;;;3.93;51.61;102067.77;1784051;79;21317;-83
2023/02/10 09:07:03;;;;;;;16.27;8.80;;;;;;;3.84;50.32;102062.42;1791241;79;21140;-83
2023/02/10 09:10:11;;;;;;;15.40;9.23;;;;;;;3.81;49.32;102059.91;1789786;78;21203;-83
2023/02/10 09:13:17;;;;;;;11.90;7.83;;;;;;;3.83;48.89;102062.03;1791390;79;21183;-83
2023/02/10 09:16:23;;;;;;;14.90;9.78;;;;;;;3.74;48.72;102065.28;1792268;79;21149;-84
2023/02/10 09:19:28;;;;;;;15.50;9.98;;;;;;;4.03;48.79;102054.56;1794056;79;21197;-83
2023/02/10 09:22:33;;;;;;;13.32;8.90;;;;;;;4.18;48.84;102050.05;1789045;79;21670;-84
2023/02/10 09:25:38;;;;;;;15.63;10.20;;;;;;;4.30;48.32;102048.83;1788579;79;21816;-83
2023/02/10 09:28:45;;;;;;;14.20;9.85;;;;;;;4.29;47.98;102043.03;1793496;79;21204;-83
2023/02/10 09:31:50;;;;;;;18.65;10.43;;;;;;;4.18;48.16;102037.37;1786792;79;21141;-83
2023/02/10 09:34:56;;;;;;;15.05;9.55;;;;;;;4.23;47.52;102033.91;1793602;79;21144;-83
2023/02/10 09:37:56;;;;;;;14.70;10.13;;;;;;;4.35;47.12;102039.08;1792968;79;21180;-82
2023/02/10 09:41:17;;;;;;;16.90;10.40;;;;;;;4.43;46.89;102039.48;1791071;79;21224;-83
2023/02/10 09:44:38;;;;;;;17.70;10.58;;;;;;;4.08;47.33;102035.71;1779762;79;21196;-84
2023/02/10 09:47:57;;;;;;;16.02;10.63;;;;;;;3.99;46.97;102029.50;1778581;79;21198;-82
2023/02/10 09:51:14;;;;;;;13.93;8.73;;;;;;;3.78;47.87;102024.89;1774093;79;21137;-83
2023/02/10 09:54:05;;;;;;;17.48;10.90;;;;;;;3.73;47.33;102007.19;1777590;79;21213;-82
2023/02/10 09:57:20;;;;;;;15.90;10.85;;;;;;;3.45;47.67;102009.29;1775736;79;21181;-83
2023/02/10 10:00:38;;;;;;;24.43;12.18;;;;;;;3.30;47.93;102013.27;1773977;79;21702;-82
2023/02/10 10:04:10;;;;;;;19.48;11.08;;;;;;;3.16;48.46;102014.55;1774710;79;21184;-82
2023/02/10 10:07:35;;;;;;;15.93;10.05;;;;;;;3.36;48.31;102013.39;1691490;82;21174;-83
2023/02/10 10:10:44;;;;;;;15.83;10.05;;;;;;;3.04;49.21;102012.52;1705544;82;21162;-83
2023/02/10 10:13:51;;;;;;;17.05;9.30;;;;;;;3.52;48.85;102007.95;1777093;79;21170;-82
2023/02/10 10:17:18;;;;;;;16.65;10.30;;;;;;;3.37;48.42;102006.14;1780964;79;21196;-83
2023/02/10 10:20:56;;;;;;;16.73;9.88;;;;;;;3.15;48.47;101997.90;1777008;79;21246;-83
2023/02/10 10:24:27;;;;;;;38.38;12.85;;;;;;;3.00;48.85;101995.59;1771937;79;21142;-82
2023/02/10 10:27:54;;;;;;;18.45;10.70;;;;;;;3.17;48.97;101996.00;1771435;79;21188;-83
2023/02/10 10:31:23;;;;;;;16.15;9.93;;;;;;;3.44;48.43;101996.25;1786504;79;21161;-83
2023/02/10 10:34:27;;;;;;;17.75;10.38;;;;;;;3.33;48.52;101983.80;1800729;79;21196;-82
2023/02/10 10:37:34;;;;;;;19.27;11.90;;;;;;;3.63;47.81;101975.74;1770556;81;21153;-82
2023/02/10 10:40:41;;;;;;;18.17;10.53;;;;;;;3.56;48.31;101979.76;1777367;79;21161;-83
2023/02/10 10:43:54;;;;;;;17.82;10.48;;;;;;;3.66;48.06;101972.83;1708593;82;21209;-81
2023/02/10 10:47:08;;;;;;;16.07;9.70;;;;;;;3.72;47.96;101974.33;1711798;84;21276;-82
2023/02/10 10:50:15;;;;;;;13.20;9.25;;;;;;;3.99;47.36;101972.63;1739678;82;21197;-83
2023/02/10 10:53:25;;;;;;;16.07;11.12;;;;;;;3.75;47.38;101972.28;1738756;82;21262;-81
2023/02/10 10:57:00;;;;;;;15.43;9.65;;;;;;;3.55;48.00;101965.84;1723620;82;21213;-82
2023/02/10 11:00:12;;;;;;;21.55;12.55;;;;;;;3.81;47.82;101955.70;1726237;82;21220;-81
2023/02/10 11:03:21;;;;;;;20.57;12.43;;;;;;;3.80;47.87;101945.81;1715355;82;21217;-82
2023/02/10 11:06:24;;;;;;;24.45;13.85;;;;;;;3.81;47.89;101942.16;1715876;82;21153;-82
2023/02/10 11:09:41;;;;;;;23.47;12.65;;;;;;;4.01;47.71;101946.84;1731468;82;21181;-82
2023/02/10 11:12:48;;;;;;;26.17;15.30;;;;;;;3.90;47.54;101951.53;1726116;82;21780;-81
2023/02/10 11:15:54;;;;;;;27.45;13.85;;;;;;;4.13;47.53;101940.64;1701972;82;21165;-84
2023/02/10 11:19:03;;;;;;;24.60;14.87;;;;;;;4.21;47.29;101933.41;1716947;82;21228;-81
2023/02/10 11:22:11;;;;;;;22.55;13.43;;;;;;;4.35;47.14;101924.80;1720713;82;22053;-81
2023/02/10 11:25:40;;;;;;;25.82;13.85;;;;;;;4.28;47.11;101927.53;1726692;82;21205;-82
2023/02/10 11:28:45;;;;;;;19.82;12.65;;;;;;;4.35;46.89;101923.45;1721852;82;21220;-83
2023/02/10 11:31:51;;;;;;;23.55;12.18;;;;;;;4.56;46.48;101912.20;1727496;82;21149;-83
2023/02/10 11:34:58;;;;;;;22.87;12.37;;;;;;;4.20;47.13;101908.17;1680861;81;21539;-81
2023/02/10 11:38:12;;;;;;;20.82;12.68;;;;;;;4.04;47.08;101907.36;1723283;82;21225;-83
2023/02/10 11:41:18;;;;;;;18.90;11.65;;;;;;;3.93;47.39;101898.56;1721796;82;21166;-82
2023/02/10 11:44:36;;;;;;;22.73;14.30;;;;;;;3.81;47.47;101895.25;1714067;82;21220;-81
2023/02/10 11:47:43;;;;;;;18.10;11.25;;;;;;;3.69;47.80;101892.83;1713310;82;21180;-81
2023/02/10 11:50:51;;;;;;;19.57;12.47;;;;;;;3.94;47.49;101888.60;1718013;82;21173;-81
2023/02/10 11:53:57;;;;;;;18.67;12.13;;;;;;;3.53;47.69;101888.84;1769549;81;21321;-83
2023/02/10 12:01:24;;;;;;;27.42;15.00;;;;;;;3.57;47.87;101871.42;1778518;79;21140;-80
2023/02/10 12:05:09;;;;;;;20.90;13.55;;;;;;;3.19;48.29;101869.67;1741433;79;21272;-80
2023/02/10 12:08:49;;;;;;;23.12;13.78;;;;;;;3.39;48.33;101868.96;1773245;79;21181;-82
2023/02/10 12:11:59;;;;;;;34.60;15.43;;;;;;;3.66;47.90;101875.41;1773529;79;21267;-81
2023/02/10 12:15:13;;;;;;;19.48;12.58;;;;;;;3.56;48.17;101875.59;1724936;82;21777;-81
2023/02/10 12:18:33;;;;;;;23.32;13.58;;;;;;;3.72;48.25;101875.05;1780626;79;21149;-81
2023/02/10 12:22:07;;;;;;;23.15;13.55;;;;;;;3.76;48.19;101867.11;1773056;79;21145;-82
2023/02/10 12:25:32;;;;;;;23.15;13.65;;;;;;;3.64;48.47;101876.00;1771895;79;21138;-81
2023/02/10 12:29:15;;;;;;;24.27;14.20;;;;;;;3.21;49.15;101876.36;1782264;79;21431;-81
2023/02/10 12:32:37;;;;;;;21.07;14.18;;;;;;;3.47;48.79;101871.59;1773892;79;21268;-81
2023/02/10 12:36:04;;;;;;;24.37;14.03;;;;;;;3.55;48.54;101865.73;1774239;79;21137;-81
2023/02/10 12:39:28;;;;;;;22.48;13.45;;;;;;;3.48;48.35;101871.11;1770235;81;21225;-83
2023/02/10 12:42:59;;;;;;;22.37;13.03;;;;;;;3.32;48.77;101863.93;1784126;79;21129;-83
2023/02/10 12:46:36;;;;;;;22.07;14.47;;;;;;;2.90;49.73;101870.04;1801154;79;21173;-83
2023/02/10 12:49:39;;;;;;;23.87;14.45;;;;;;;3.17;49.38;101870.26;1708678;82;21732;-83
2023/02/10 12:52:50;;;;;;;28.23;14.45;;;;;;;3.02;49.56;101879.28;1770106;81;21201;-81
2023/02/10 12:56:34;;;;;;;28.40;14.53;;;;;;;2.91;49.80;101868.20;1771491;79;22081;-83
2023/02/10 12:59:56;;;;;;;26.95;15.50;;;;;;;3.08;49.68;101869.45;1772906;79;21205;-83
2023/02/10 13:03:15;;;;;;;23.40;14.38;;;;;;;3.05;49.76;101873.19;1772879;79;21172;-81
2023/02/10 13:06:43;;;;;;;26.07;14.95;;;;;;;2.75;50.23;101867.74;1804767;79;21137;-82
2023/02/10 13:10:00;;;;;;;25.02;14.35;;;;;;;2.77;50.67;101869.00;1712502;82;21161;-83
2023/02/10 13:13:32;;;;;;;25.70;14.53;;;;;;;2.90;50.47;101877.28;1787248;79;21161;-80
2023/02/10 13:16:39;;;;;;;28.00;15.58;;;;;;;2.71;51.01;101872.93;1786866;79;21523;-80
2023/02/10 13:19:59;;;;;;;23.15;14.25;;;;;;;2.56;51.45;101874.67;1778819;79;21523;-83
2023/02/10 13:23:59;;;;;;;27.07;15.35;;;;;;;2.52;51.76;101859.59;1781137;79;21168;-81
2023/02/10 13:27:33;;;;;;;26.00;15.83;;;;;;;2.40;51.81;101864.81;1771669;79;21200;-81
2023/02/10 13:31:17;;;;;;;30.90;17.42;;;;;;;2.46;51.92;101863.14;1769853;80;21196;-80
2023/02/10 13:34:43;;;;;;;31.57;17.48;;;;;;;2.40;51.90;101867.06;1785556;80;21206;-83
2023/02/10 13:37:56;;;;;;;43.17;19.82;;;;;;;2.46;51.78;101865.84;1756136;81;21879;-83
2023/02/10 13:44:42;;;;;;;31.52;18.62;;;;;;;2.24;52.24;101871.07;1771470;81;21216;-81
2023/02/10 13:47:55;;;;;;;34.98;19.82;;;;;;;2.16;52.50;101871.09;1783450;79;21192;-81
2023/02/10 13:51:06;;;;;;;40.25;21.23;;;;;;;2.10;52.94;101872.31;1780353;80;21160;-80
2023/02/10 13:54:12;;;;;;;37.20;22.70;;;;;;;2.15;52.95;101882.38;1779985;80;21192;-81
2023/02/10 13:57:40;;;;;;;41.90;22.20;;;;;;;1.87;53.59;101885.70;1758496;80;21710;-81
2023/02/10 14:01:00;;;;;;;44.93;22.62;;;;;;;1.78;54.06;101877.61;1780322;80;21197;-81
2023/02/10 14:04:05;;;;;;;42.48;22.87;;;;;;;1.77;54.59;101867.78;1779817;80;21200;-84
2023/02/10 14:07:22;;;;;;;35.08;20.00;;;;;;;1.70;54.88;101860.11;1779092;80;21216;-84
2023/02/10 14:10:32;;;;;;;34.25;18.77;;;;;;;2.10;54.14;101864.21;1779818;80;21212;-80
2023/02/10 14:13:40;;;;;;;30.08;17.92;;;;;;;1.90;54.21;101854.98;1779714;80;21199;-83
2023/02/10 14:16:48;;;;;;;34.30;17.90;;;;;;;1.99;53.92;101849.09;1780401;80;21168;-80
2023/02/10 14:19:55;;;;;;;32.28;17.82;;;;;;;2.16;53.45;101857.11;1780544;80;21196;-81
2023/02/10 14:23:10;;;;;;;33.33;17.90;;;;;;;1.78;53.92;101851.98;1780051;80;21173;-83
2023/02/10 14:26:25;;;;;;;32.78;19.23;;;;;;;1.66;54.58;101849.09;1778694;80;21732;-81
2023/02/10 14:29:31;;;;;;;36.98;20.23;;;;;;;1.54;54.71;101846.55;1780320;80;21172;-81
2023/02/10 14:32:37;;;;;;;34.90;18.37;;;;;;;1.34;55.35;101844.03;1779826;80;21208;-84
2023/02/10 14:35:44;;;;;;;36.95;19.95;;;;;;;1.27;55.83;101846.16;1780404;80;21153;-81
2023/02/10 14:38:51;;;;;;;35.30;19.12;;;;;;;1.26;55.72;101842.59;1780392;80;21215;-83
2023/02/10 14:41:56;;;;;;;33.58;20.15;;;;;;;1.23;55.82;101840.08;1780182;80;21192;-81
2023/02/10 14:45:07;;;;;;;39.67;21.20;;;;;;;1.01;56.25;101836.73;1780479;80;21228;-84